createdAt,value
2023-01-06T00:03:46.256Z,4.1
2023-01-06T00:08:50.928Z,2.6
2023-01-06T00:13:53.198Z,3.3
2023-01-06T00:18:55.496Z,2.9
2023-01-06T00:23:57.704Z,3.5
2023-01-06T00:29:00.176Z,3.3
2023-01-06T00:34:02.271Z,3.6
2023-01-06T00:39:04.484Z,3.2
2023-01-06T00:44:06.892Z,2.7
2023-01-06T00:49:09.154Z,3
2023-01-06T00:54:11.695Z,2.9
2023-01-06T00:59:13.891Z,3.1
2023-01-06T01:04:15.945Z,2.5
2023-01-06T01:09:18.122Z,2.3
2023-01-06T01:14:40.564Z,3.5
2023-01-06T01:19:42.620Z,4
2023-01-06T01:24:44.830Z,3.5
2023-01-06T01:29:48.033Z,3.6
2023-01-06T01:34:50.789Z,3.2
2023-01-06T01:39:53.432Z,3.6
2023-01-06T01:44:55.739Z,2.6
2023-01-06T01:49:58.197Z,3.4
2023-01-06T01:55:02.797Z,3.6
2023-01-06T02:00:05.028Z,5.4
2023-01-06T02:05:07.457Z,4
2023-01-06T02:10:10.210Z,4.7
2023-01-06T02:15:11.102Z,3.5
2023-01-06T02:20:13.356Z,4.4
2023-01-06T02:25:15.704Z,2.9
2023-01-06T02:30:18.789Z,2.4
2023-01-06T02:35:20.937Z,3.9
2023-01-06T02:40:23.393Z,3.8
2023-01-06T02:45:25.618Z,3.8
2023-01-06T02:50:27.841Z,2.9
2023-01-06T02:55:30.033Z,3.8
2023-01-06T03:00:32.460Z,3.1
2023-01-06T03:05:34.887Z,5.3
2023-01-06T03:10:37.055Z,2.9
2023-01-06T03:15:39.256Z,3
2023-01-06T03:20:41.501Z,3.9
2023-01-06T03:25:43.736Z,3
2023-01-06T03:30:46.439Z,3
2023-01-06T03:35:48.862Z,5.1
2023-01-06T03:40:50.960Z,4.1
2023-01-06T03:45:53.163Z,3.5
2023-01-06T03:50:55.329Z,4.9
2023-01-06T03:55:57.635Z,2.4
2023-01-06T04:01:00.236Z,3
2023-01-06T04:06:03.228Z,2.6
2023-01-06T04:11:05.619Z,2.9
2023-01-06T04:16:07.765Z,3.4
2023-01-06T04:21:10.103Z,3.6
2023-01-06T04:26:13.221Z,3.8
2023-01-06T04:31:15.290Z,4.4
2023-01-06T04:36:17.549Z,2.8
2023-01-06T04:41:19.729Z,3.1
2023-01-06T04:46:21.843Z,2.8
2023-01-06T04:51:24.108Z,2.6
2023-01-06T04:56:26.937Z,4.3
2023-01-06T05:01:29.511Z,3
2023-01-06T05:06:32.705Z,2.6
2023-01-06T05:11:35.073Z,4
2023-01-06T05:16:37.205Z,3.5
2023-01-06T05:21:39.736Z,4
2023-01-06T05:26:41.943Z,3.4
2023-01-06T05:31:44.277Z,4.7
2023-01-06T05:36:47.212Z,3.4
2023-01-06T05:41:50.604Z,3.8
2023-01-06T05:46:54.000Z,4.4
2023-01-06T05:51:57.212Z,4.8
2023-01-06T05:56:59.625Z,5.2
2023-01-06T06:02:01.803Z,5.2
2023-01-06T06:07:04.797Z,5
2023-01-06T06:12:07.395Z,5.2
2023-01-06T06:17:09.651Z,3.6
2023-01-06T06:27:14.171Z,3.8
2023-01-06T06:32:19.060Z,4.5
2023-01-06T06:37:21.235Z,6.1
2023-01-06T06:42:23.439Z,8.2
2023-01-06T06:47:25.563Z,5.4
2023-01-06T06:52:27.744Z,4.9
2023-01-06T06:57:29.874Z,5.7
2023-01-06T07:02:32.303Z,4.3
2023-01-06T07:07:34.643Z,3.9
2023-01-06T07:12:36.804Z,4.2
2023-01-06T07:17:38.964Z,3.3
2023-01-06T07:22:41.016Z,4.1
2023-01-06T07:27:43.067Z,2.7
2023-01-06T07:32:45.063Z,3
2023-01-06T07:37:47.171Z,2.7
2023-01-06T07:42:49.317Z,3.4
2023-01-06T07:47:51.376Z,2.7
2023-01-06T07:52:53.577Z,3.4
2023-01-06T07:57:54.623Z,5
2023-01-06T08:02:58.933Z,4.7
2023-01-06T08:08:01.514Z,3.5
2023-01-06T08:13:03.618Z,3.3
2023-01-06T08:18:05.820Z,3.2
2023-01-06T08:23:06.697Z,2.4
2023-01-06T08:28:08.835Z,2.9
2023-01-06T08:33:10.878Z,3.6
2023-01-06T08:38:13.110Z,2.8
2023-01-06T08:43:15.332Z,2.9
2023-01-06T08:48:17.390Z,2.2
2023-01-06T08:53:19.520Z,2.8
2023-01-06T08:58:21.841Z,2
2023-01-06T09:03:24.017Z,2.8
2023-01-06T09:08:27.701Z,3.5
2023-01-06T09:13:32.901Z,3
2023-01-06T09:18:37.650Z,2.5
2023-01-06T09:28:42.816Z,3.9
2023-01-06T09:33:47.886Z,2.7
2023-01-06T09:38:50.039Z,3.3
2023-01-06T09:43:52.523Z,2.2
2023-01-06T09:48:54.537Z,2.7
2023-01-06T09:53:56.844Z,1.8
2023-01-06T09:59:01.679Z,1.7
2023-01-06T10:04:03.810Z,2.5
2023-01-06T10:09:06.104Z,2.8
2023-01-06T10:14:08.237Z,2.4
2023-01-06T10:19:10.786Z,2
2023-01-06T10:29:15.929Z,2.8
2023-01-06T10:34:18.159Z,2.9
2023-01-06T10:39:24.195Z,3.2
2023-01-06T10:44:26.305Z,2.5
2023-01-06T10:49:28.941Z,3.3
2023-01-06T10:54:31.421Z,5.5
2023-01-06T10:59:31.976Z,2.1
2023-01-06T11:04:34.829Z,2.7
2023-01-06T11:09:37.365Z,2
2023-01-06T11:14:39.361Z,1.7
2023-01-06T11:19:44.114Z,1.6
2023-01-06T11:24:46.128Z,2.2
2023-01-06T11:29:48.233Z,2.2
2023-01-06T11:34:50.376Z,2.6
2023-01-06T11:39:55.789Z,3.6
2023-01-06T11:44:53.250Z,2.8
2023-01-06T11:49:55.377Z,1.9
2023-01-06T11:54:57.446Z,3
2023-01-06T11:59:59.918Z,3
2023-01-06T12:05:02.042Z,1.6
2023-01-06T12:10:04.204Z,1.8
2023-01-06T12:15:06.293Z,1.6
2023-01-06T12:20:08.463Z,2.1
2023-01-06T12:25:14.375Z,2
2023-01-06T12:30:16.423Z,2.4
2023-01-06T12:35:18.422Z,2.2
2023-01-06T12:40:21.584Z,2.3
2023-01-06T12:45:23.787Z,2
2023-01-06T12:50:25.979Z,2.5
2023-01-06T12:55:28.118Z,1.9
2023-01-06T13:00:30.134Z,1.4
2023-01-06T13:05:32.228Z,4
2023-01-06T13:10:34.570Z,2.6
2023-01-06T13:15:36.594Z,1.8
2023-01-06T13:20:38.619Z,1.8
2023-01-06T13:25:40.788Z,4.3
2023-01-06T13:35:46.371Z,1.4
2023-01-06T13:40:48.361Z,3.2
2023-01-06T13:45:50.867Z,1.8
2023-01-06T13:50:53.328Z,1.8
2023-01-06T13:55:55.368Z,3.4
2023-01-06T14:00:57.440Z,1.6
2023-01-06T14:05:59.551Z,2.4
2023-01-06T14:11:01.819Z,2.6
2023-01-06T14:16:03.893Z,5.2
2023-01-06T14:21:06.909Z,5.5
2023-01-06T14:26:08.881Z,14.3
2023-01-06T14:31:17.833Z,2.7
2023-01-06T14:36:20.594Z,2.3
2023-01-06T14:41:23.404Z,4.2
2023-01-06T14:46:25.875Z,6
2023-01-06T14:51:28.653Z,9.5
2023-01-06T14:56:31.001Z,7.7
2023-01-06T15:01:33.789Z,9.9
2023-01-06T15:06:36.987Z,10.9
2023-01-06T15:11:39.186Z,9
2023-01-06T15:16:41.169Z,9.3
2023-01-06T15:21:43.267Z,8.9
2023-01-06T15:26:45.485Z,10.4
2023-01-06T15:31:47.805Z,10
2023-01-06T15:36:49.914Z,6.3
2023-01-06T15:41:52.490Z,6.9
2023-01-06T15:46:54.561Z,7.3
2023-01-06T15:51:57.575Z,6
2023-01-06T15:57:08.116Z,5.2
2023-01-06T16:02:08.838Z,5.1
2023-01-06T16:07:11.591Z,8.7
2023-01-06T16:12:14.383Z,12.3
2023-01-06T16:17:16.928Z,11.3
2023-01-06T16:22:19.174Z,11.5
2023-01-06T16:27:21.769Z,10.3
2023-01-06T16:32:24.022Z,10.4
2023-01-06T16:37:26.123Z,13
2023-01-06T16:42:28.126Z,12.2
2023-01-06T16:47:30.144Z,11.6
2023-01-06T16:52:34.701Z,10.9
2023-01-06T16:57:37.543Z,11.1
2023-01-06T17:02:39.622Z,11.2
2023-01-06T17:07:41.811Z,9.8
2023-01-06T17:12:43.952Z,13.3
2023-01-06T17:17:46.089Z,21.9
2023-01-06T17:22:46.422Z,12.7
2023-01-06T17:27:48.479Z,13.7
2023-01-06T17:32:50.511Z,10.3
2023-01-06T17:37:52.535Z,9.5
2023-01-06T17:42:54.623Z,9.4
2023-01-06T17:47:56.673Z,8.3
2023-01-06T17:52:58.878Z,11.5
2023-01-06T17:58:00.829Z,11.5
2023-01-06T18:03:02.807Z,14
2023-01-06T18:08:04.891Z,14
2023-01-06T18:13:06.911Z,20.4
2023-01-06T18:18:09.138Z,15.2
2023-01-06T18:23:11.390Z,14.8
2023-01-06T18:28:13.992Z,15.6
2023-01-06T18:33:16.036Z,16.3
2023-01-06T18:38:18.118Z,14.6
2023-01-06T18:43:20.282Z,13.2
2023-01-06T18:48:22.334Z,14.8
2023-01-06T18:53:24.581Z,25.8
2023-01-06T18:58:25.016Z,14.2
2023-01-06T19:03:27.124Z,14.4
2023-01-06T19:08:29.699Z,15.7
2023-01-06T19:13:31.940Z,16
2023-01-06T19:18:34.054Z,16.1
2023-01-06T19:23:36.101Z,16.7
2023-01-06T19:28:38.146Z,15.5
2023-01-06T19:33:41.215Z,15.4
2023-01-06T19:38:43.765Z,14.6
2023-01-06T19:43:46.476Z,13.9
2023-01-06T19:48:49.020Z,18.1
2023-01-06T19:53:51.240Z,16.9
2023-01-06T19:58:53.340Z,16.9
2023-01-06T20:03:55.609Z,15.3
2023-01-06T20:08:58.297Z,15.9
2023-01-06T20:14:00.947Z,17.7
2023-01-06T20:19:03.245Z,16.3
2023-01-06T20:24:05.374Z,17.2
2023-01-06T20:29:07.476Z,16.3
2023-01-06T20:34:09.865Z,16.9
2023-01-06T20:39:12.151Z,16.5
2023-01-06T20:44:14.759Z,14.4
2023-01-06T20:49:17.293Z,12.3
2023-01-06T20:54:19.516Z,13.1
2023-01-06T20:59:22.056Z,12.9
2023-01-06T21:04:26.386Z,11.8
2023-01-06T21:09:33.399Z,11.4
2023-01-06T21:14:36.099Z,11.6
2023-01-06T21:19:38.365Z,11.4
2023-01-06T21:24:40.939Z,11
2023-01-06T21:29:43.421Z,9.8
2023-01-06T21:34:46.102Z,12.2
2023-01-06T21:39:49.225Z,13.8
2023-01-06T21:44:51.780Z,12
2023-01-06T21:49:54.262Z,10.6
2023-01-06T21:54:56.657Z,10.6
2023-01-06T21:59:59.426Z,12.9
2023-01-06T22:05:01.596Z,9.5
2023-01-06T22:10:05.905Z,9.8
2023-01-06T22:15:08.641Z,9.2
2023-01-06T22:20:10.888Z,9.1
2023-01-06T22:25:13.457Z,8.1
2023-01-06T22:30:15.823Z,10.6
2023-01-06T22:35:17.952Z,9.1
2023-01-06T22:40:20.433Z,9.8
2023-01-06T22:45:23.396Z,9.5
2023-01-06T22:50:25.786Z,10.1
2023-01-06T22:55:28.147Z,10.5
2023-01-06T23:00:30.704Z,10.8
2023-01-06T23:05:32.962Z,10.2
2023-01-06T23:10:35.200Z,9.9
2023-01-06T23:15:38.665Z,9.6
2023-01-06T23:20:41.083Z,11.5
2023-01-06T23:25:43.274Z,10
2023-01-06T23:30:45.592Z,10.5
2023-01-06T23:35:48.170Z,10.1
2023-01-06T23:40:50.578Z,10.3
2023-01-06T23:45:53.168Z,12
2023-01-06T23:50:56.064Z,11
2023-01-06T23:55:58.415Z,9.9
